Time;durP1;ratioP1;P1;durP2;ratioP2;P2;SDS_P1;SDS_P2;PMS_P1;PMS_P2;Temp;Humidity;BMP_temperature;BMP_pressure;BME280_temperature;BME280_humidity;BME280_pressure;Samples;Min_cycle;Max_cycle;Signal;HPM_P1;HPM_P2
2021/11/24 00:02:08;;;;;;;20.52;12.10;;;7.40;99.90;;;;;;6242662;23;20024;-75
2021/11/24 00:04:34;;;;;;;20.63;12.30;;;7.40;99.90;;;;;;6242402;23;20053;-75
2021/11/24 00:07:00;;;;;;;17.10;11.20;;;7.40;99.90;;;;;;6244026;23;20436;-75
2021/11/24 00:09:26;;;;;;;19.75;11.38;;;7.40;99.90;;;;;;6242667;23;20403;-75
2021/11/24 00:11:51;;;;;;;22.65;12.43;;;7.40;99.90;;;;;;6242440;23;20091;-75
2021/11/24 00:14:17;;;;;;;17.83;11.55;;;7.30;99.90;;;;;;6242117;23;20459;-75
2021/11/24 00:16:43;;;;;;;19.55;11.65;;;7.30;99.90;;;;;;6244035;23;20024;-75
2021/11/24 00:19:09;;;;;;;18.55;11.55;;;7.30;99.90;;;;;;6244039;22;20454;-76
2021/11/24 00:21:34;;;;;;;18.27;11.43;;;7.30;99.90;;;;;;6244089;22;20006;-75
2021/11/24 00:24:00;;;;;;;18.77;11.35;;;7.30;99.90;;;;;;6244100;23;20336;-75
2021/11/24 00:26:26;;;;;;;22.13;12.32;;;7.30;99.90;;;;;;6242378;23;20075;-75
2021/11/24 00:28:51;;;;;;;17.33;11.23;;;7.30;99.90;;;;;;6242313;23;20015;-75
2021/11/24 00:31:17;;;;;;;17.50;10.63;;;7.30;99.90;;;;;;6244110;23;20000;-75
2021/11/24 00:33:43;;;;;;;16.98;10.40;;;7.30;99.90;;;;;;6242068;23;20384;-75
2021/11/24 00:36:09;;;;;;;16.92;10.95;;;7.20;99.90;;;;;;6243941;23;20428;-76
2021/11/24 00:38:35;;;;;;;17.25;11.23;;;7.30;99.90;;;;;;6244004;23;19996;-75
2021/11/24 00:41:01;;;;;;;18.10;11.55;;;7.30;99.90;;;;;;6243976;22;20003;-75
2021/11/24 00:43:27;;;;;;;16.88;9.85;;;7.30;99.90;;;;;;6244069;22;20020;-75
2021/11/24 00:45:53;;;;;;;16.20;11.23;;;7.30;99.90;;;;;;6243653;22;20007;-75
2021/11/24 00:48:20;;;;;;;15.00;10.68;;;7.30;99.90;;;;;;6243865;22;20016;-75
2021/11/24 00:50:46;;;;;;;16.02;11.15;;;7.30;99.90;;;;;;6243836;22;20000;-75
2021/11/24 00:53:12;;;;;;;16.08;11.18;;;7.30;99.90;;;;;;6244198;22;20011;-75
2021/11/24 00:55:37;;;;;;;14.30;9.82;;;7.30;99.90;;;;;;6241905;23;20414;-75
2021/11/24 00:58:04;;;;;;;15.13;10.55;;;7.30;99.90;;;;;;6243757;23;20003;-76
2021/11/24 01:00:30;;;;;;;18.85;11.48;;;7.30;99.90;;;;;;6244025;22;20075;-75
2021/11/24 01:02:56;;;;;;;15.45;10.50;;;7.30;99.90;;;;;;6242124;23;20054;-75
2021/11/24 01:05:22;;;;;;;15.77;11.35;;;7.20;99.90;;;;;;6243207;23;20091;-75
2021/11/24 01:07:48;;;;;;;17.60;10.70;;;7.30;99.90;;;;;;6244204;23;20011;-75
2021/11/24 01:10:14;;;;;;;16.17;10.77;;;7.30;99.90;;;;;;6245847;22;20004;-75
2021/11/24 01:12:42;;;;;;;14.77;10.45;;;7.30;99.90;;;;;;6245826;22;20007;-75
2021/11/24 01:15:10;;;;;;;17.75;10.98;;;7.30;99.90;;;;;;6245951;22;20004;-75
2021/11/24 01:17:36;;;;;;;18.33;10.57;;;7.30;99.90;;;;;;6245618;22;20034;-75
2021/11/24 01:20:03;;;;;;;15.40;10.48;;;7.30;99.90;;;;;;6245516;22;20050;-76
2021/11/24 01:22:28;;;;;;;18.52;11.10;;;7.30;99.90;;;;;;6245635;22;20486;-75
2021/11/24 01:24:54;;;;;;;16.30;10.82;;;7.30;99.90;;;;;;6245860;22;19996;-76
2021/11/24 01:27:20;;;;;;;16.75;11.43;;;7.30;99.90;;;;;;6243888;23;20095;-75
2021/11/24 01:29:46;;;;;;;16.67;10.90;;;7.30;99.90;;;;;;6245758;23;20004;-75
2021/11/24 01:32:12;;;;;;;16.58;10.15;;;7.30;99.90;;;;;;6245577;23;20007;-75
2021/11/24 01:34:38;;;;;;;16.77;10.57;;;7.20;99.90;;;;;;6243920;23;20004;-75
2021/11/24 01:37:04;;;;;;;19.30;11.15;;;7.30;99.90;;;;;;6244049;23;20014;-75
2021/11/24 01:39:30;;;;;;;16.33;10.52;;;7.20;99.90;;;;;;6243829;23;20035;-75
2021/11/24 01:41:56;;;;;;;14.82;10.50;;;7.20;99.90;;;;;;6245581;22;20007;-75
2021/11/24 01:44:25;;;;;;;17.98;10.68;;;7.20;99.90;;;;;;6245393;22;20003;-75
2021/11/24 01:46:59;;;;;;;17.63;10.80;;;7.10;99.90;;;;;;6244046;23;20051;-75
2021/11/24 01:49:26;;;;;;;18.60;11.23;;;7.10;99.90;;;;;;6243855;23;20150;-75
2021/11/24 01:51:52;;;;;;;16.85;11.55;;;7.00;99.90;;;;;;6243971;23;20003;-75
2021/11/24 01:54:19;;;;;;;17.88;10.38;;;7.00;99.90;;;;;;6245327;22;20007;-76
2021/11/24 01:56:45;;;;;;;17.63;11.35;;;7.00;99.90;;;;;;6243572;23;20008;-75
2021/11/24 01:59:13;;;;;;;18.75;11.77;;;7.00;99.90;;;;;;6245571;22;20079;-75
2021/11/24 02:01:41;;;;;;;16.90;11.40;;;7.00;99.90;;;;;;6245436;22;20004;-75
2021/11/24 02:04:08;;;;;;;16.38;10.40;;;7.00;99.90;;;;;;6243617;23;20000;-75
2021/11/24 02:06:34;;;;;;;13.68;10.30;;;7.00;99.90;;;;;;6243671;23;20008;-76
2021/11/24 02:08:59;;;;;;;14.68;10.55;;;7.00;99.90;;;;;;6245084;23;20012;-75
2021/11/24 02:11:26;;;;;;;15.82;10.77;;;7.00;99.90;;;;;;6245221;22;20027;-76
2021/11/24 02:13:52;;;;;;;15.77;11.05;;;7.00;99.90;;;;;;6245134;22;20000;-76
2021/11/24 02:16:18;;;;;;;18.75;11.60;;;7.00;99.90;;;;;;6245106;22;20005;-75
2021/11/24 02:18:44;;;;;;;14.82;10.90;;;6.90;99.90;;;;;;6245140;22;20075;-75
2021/11/24 02:21:10;;;;;;;17.38;11.63;;;7.00;99.90;;;;;;6245151;23;20004;-75
2021/11/24 02:23:36;;;;;;;17.27;11.82;;;7.00;99.90;;;;;;6245165;22;20019;-75
2021/11/24 02:26:02;;;;;;;18.60;11.63;;;7.00;99.90;;;;;;6245041;22;20004;-75
2021/11/24 02:28:28;;;;;;;16.85;11.07;;;7.00;99.90;;;;;;6245078;22;20030;-75
2021/11/24 02:30:53;;;;;;;15.10;11.10;;;7.00;99.90;;;;;;6245225;23;20004;-76
2021/11/24 02:33:19;;;;;;;16.02;10.85;;;6.90;99.90;;;;;;6244962;23;19997;-76
2021/11/24 02:35:45;;;;;;;20.35;11.50;;;6.90;99.90;;;;;;6244749;23;20455;-76
2021/11/24 02:38:17;;;;;;;19.85;12.07;;;6.90;99.90;;;;;;6245209;22;19996;-75
2021/11/24 02:40:43;;;;;;;18.30;12.18;;;6.90;99.90;;;;;;6245138;22;20336;-75
2021/11/24 02:43:09;;;;;;;17.35;11.63;;;6.90;99.90;;;;;;6244949;23;19996;-75
2021/11/24 02:45:36;;;;;;;17.92;12.38;;;6.90;99.90;;;;;;6244786;22;20079;-75
2021/11/24 02:48:03;;;;;;;16.73;11.73;;;6.90;99.90;;;;;;6245127;22;20083;-75
2021/11/24 02:50:29;;;;;;;18.55;11.02;;;6.90;99.90;;;;;;6244825;22;20333;-75
2021/11/24 02:52:54;;;;;;;19.25;12.07;;;6.90;99.90;;;;;;6243323;23;20000;-75
2021/11/24 02:55:20;;;;;;;17.85;11.95;;;6.90;99.90;;;;;;6244895;22;20454;-75
2021/11/24 02:57:49;;;;;;;18.27;11.70;;;6.90;99.90;;;;;;6243185;23;20008;-76
2021/11/24 03:00:23;;;;;;;19.08;12.45;;;6.90;99.90;;;;;;6244620;22;20352;-75
2021/11/24 03:02:49;;;;;;;19.45;13.07;;;6.90;99.90;;;;;;6243164;23;20489;-75
2021/11/24 03:05:17;;;;;;;19.40;12.50;;;6.90;99.90;;;;;;6243124;23;20001;-75
2021/11/24 03:07:43;;;;;;;18.02;12.10;;;6.90;99.90;;;;;;6244839;22;20079;-75
2021/11/24 03:10:09;;;;;;;18.77;12.95;;;6.90;99.90;;;;;;6244915;22;20054;-76
2021/11/24 03:12:36;;;;;;;21.25;13.43;;;6.90;99.90;;;;;;6244647;22;20014;-75
2021/11/24 03:15:03;;;;;;;18.85;13.05;;;6.90;99.90;;;;;;6244507;22;20007;-75
2021/11/24 03:17:29;;;;;;;18.52;13.35;;;6.80;99.90;;;;;;6244498;22;19999;-75
2021/11/24 03:19:57;;;;;;;19.30;13.07;;;6.80;99.90;;;;;;6244539;23;20003;-75
2021/11/24 03:22:23;;;;;;;19.02;12.05;;;6.80;99.90;;;;;;6244555;22;20019;-75
2021/11/24 03:24:57;;;;;;;19.10;12.93;;;6.80;99.90;;;;;;6244437;22;20003;-75
2021/11/24 03:27:31;;;;;;;19.20;13.65;;;6.80;99.90;;;;;;6244041;22;20004;-76
2021/11/24 03:29:59;;;;;;;19.75;12.82;;;6.70;99.90;;;;;;6242948;23;20444;-75
2021/11/24 03:32:26;;;;;;;20.42;13.13;;;6.70;99.90;;;;;;6242910;23;20008;-76
2021/11/24 03:34:52;;;;;;;18.95;12.02;;;6.70;99.90;;;;;;6244474;22;20031;-75
2021/11/24 03:37:19;;;;;;;19.67;13.50;;;6.60;99.90;;;;;;6244319;22;20005;-75
2021/11/24 03:39:46;;;;;;;21.38;13.32;;;6.70;99.90;;;;;;6242752;23;20000;-75
2021/11/24 03:42:13;;;;;;;20.73;12.40;;;6.70;99.90;;;;;;6242764;23;20004;-76
2021/11/24 03:44:39;;;;;;;18.90;12.07;;;6.70;99.90;;;;;;6242869;23;20341;-75
2021/11/24 03:47:05;;;;;;;16.73;12.68;;;6.70;99.90;;;;;;6244204;22;20043;-75
2021/11/24 03:49:31;;;;;;;18.33;12.68;;;6.70;99.90;;;;;;6244322;22;20079;-75
2021/11/24 03:51:56;;;;;;;18.52;12.25;;;6.70;99.90;;;;;;6242868;23;20027;-75
2021/11/24 03:54:22;;;;;;;19.52;12.85;;;6.80;99.90;;;;;;6242570;23;20018;-75
2021/11/24 03:56:48;;;;;;;20.45;12.38;;;6.80;99.90;;;;;;6242654;23;20436;-75
2021/11/24 03:59:14;;;;;;;16.55;11.32;;;6.70;99.90;;;;;;6244117;23;20054;-75
2021/11/24 04:01:39;;;;;;;16.65;12.15;;;6.70;99.90;;;;;;6244241;23;20000;-75
2021/11/24 04:04:05;;;;;;;17.55;12.18;;;6.60;99.90;;;;;;6244126;22;20053;-75
2021/11/24 04:06:32;;;;;;;22.80;13.20;;;6.50;99.90;;;;;;6244388;23;20007;-75
2021/11/24 04:08:58;;;;;;;18.63;11.75;;;6.60;99.90;;;;;;6243738;22;20336;-75
2021/11/24 04:11:25;;;;;;;18.50;12.80;;;6.50;99.90;;;;;;6244101;22;20501;-75
2021/11/24 04:13:51;;;;;;;16.60;11.77;;;6.50;99.90;;;;;;6244285;22;20079;-75
2021/11/24 04:16:16;;;;;;;25.17;12.77;;;6.50;99.90;;;;;;6243926;22;20035;-75
2021/11/24 04:18:43;;;;;;;19.98;12.77;;;6.60;99.90;;;;;;6242478;23;20066;-75
2021/11/24 04:21:09;;;;;;;18.23;12.80;;;6.60;99.90;;;;;;6244281;22;20020;-75
2021/11/24 04:23:35;;;;;;;17.40;11.90;;;6.60;99.90;;;;;;6243890;23;20000;-75
2021/11/24 04:26:00;;;;;;;16.38;12.23;;;6.60;99.90;;;;;;6244023;23;20122;-75
2021/11/24 04:28:26;;;;;;;17.60;12.05;;;6.70;99.90;;;;;;6244172;23;20000;-75
2021/11/24 04:30:52;;;;;;;20.10;13.30;;;6.60;99.90;;;;;;6243754;23;20086;-75
2021/11/24 04:33:18;;;;;;;19.98;12.75;;;6.70;99.90;;;;;;6243868;22;20010;-75
2021/11/24 04:35:44;;;;;;;18.77;11.68;;;6.60;99.90;;;;;;6244118;22;20020;-75
2021/11/24 04:38:09;;;;;;;16.40;12.35;;;6.70;99.90;;;;;;6243937;22;20003;-75
2021/11/24 04:40:35;;;;;;;16.73;11.70;;;6.70;99.90;;;;;;6243978;23;20353;-75
2021/11/24 04:43:05;;;;;;;21.42;12.75;;;6.70;99.90;;;;;;6243931;22;20001;-75
2021/11/24 04:45:31;;;;;;;17.67;11.90;;;6.70;99.90;;;;;;6242369;23;20000;-75
2021/11/24 04:47:57;;;;;;;15.85;11.55;;;6.60;99.90;;;;;;6243968;22;20007;-75
2021/11/24 04:50:22;;;;;;;16.77;11.48;;;6.70;99.90;;;;;;6242456;23;20031;-76
2021/11/24 04:52:49;;;;;;;19.30;11.68;;;6.70;99.90;;;;;;6243989;22;20335;-75
2021/11/24 04:55:15;;;;;;;17.30;11.90;;;6.70;99.90;;;;;;6243844;22;20008;-75
2021/11/24 04:57:41;;;;;;;19.08;11.18;;;6.60;99.90;;;;;;6243877;22;20435;-75
2021/11/24 05:00:11;;;;;;;16.10;11.63;;;6.60;99.90;;;;;;6243882;22;20015;-75
2021/11/24 05:02:37;;;;;;;17.05;11.05;;;6.60;99.90;;;;;;6243755;22;20050;-76
2021/11/24 05:05:03;;;;;;;18.35;12.13;;;6.60;99.90;;;;;;6242116;23;20016;-75
2021/11/24 05:07:29;;;;;;;16.20;10.50;;;6.60;99.90;;;;;;6243898;22;20305;-75
2021/11/24 05:09:55;;;;;;;13.65;10.32;;;6.60;99.90;;;;;;6242428;23;20015;-75
2021/11/24 05:12:21;;;;;;;17.17;11.23;;;6.50;99.90;;;;;;6243417;22;20510;-76
2021/11/24 05:14:49;;;;;;;16.17;11.52;;;6.50;99.90;;;;;;6243795;23;20000;-75
2021/11/24 05:17:17;;;;;;;16.25;10.85;;;6.50;99.90;;;;;;6244040;22;20432;-75
2021/11/24 05:19:47;;;;;;;15.13;10.82;;;6.50;99.90;;;;;;6242284;23;20072;-75
2021/11/24 05:22:14;;;;;;;15.00;10.52;;;6.60;99.90;;;;;;6243811;22;20000;-75
2021/11/24 05:24:40;;;;;;;14.57;10.60;;;6.60;99.90;;;;;;6244112;22;20010;-76
2021/11/24 05:27:06;;;;;;;17.35;10.85;;;6.70;99.90;;;;;;6242673;23;20020;-76
2021/11/24 05:29:32;;;;;;;15.95;11.00;;;6.60;99.90;;;;;;6242384;23;20012;-76
2021/11/24 05:31:58;;;;;;;18.25;11.25;;;6.60;99.90;;;;;;6243808;22;20012;-76
2021/11/24 05:34:24;;;;;;;17.80;11.13;;;6.60;99.90;;;;;;6242180;23;20331;-76
2021/11/24 05:36:49;;;;;;;17.85;11.73;;;6.60;99.90;;;;;;6243635;22;20061;-76
2021/11/24 05:39:15;;;;;;;17.38;11.15;;;6.60;99.90;;;;;;6243673;22;20000;-75
2021/11/24 05:41:41;;;;;;;15.63;10.80;;;6.40;99.90;;;;;;6244357;22;19996;-75
2021/11/24 05:44:25;;;;;;;15.05;11.40;;;6.30;99.90;;;;;;6244909;22;20011;-75
2021/11/24 05:46:58;;;;;;;16.45;11.45;;;6.30;99.90;;;;;;6243628;23;20024;-75
2021/11/24 05:49:28;;;;;;;14.32;10.25;;;6.30;99.90;;;;;;6245159;22;20010;-76
2021/11/24 05:51:55;;;;;;;16.73;11.50;;;6.30;99.90;;;;;;6246720;22;20079;-75
2021/11/24 05:54:21;;;;;;;14.98;11.02;;;6.30;99.90;;;;;;6246073;22;20000;-75
2021/11/24 05:56:47;;;;;;;15.18;11.18;;;6.40;99.90;;;;;;6244409;23;20015;-75
2021/11/24 05:59:16;;;;;;;16.83;11.30;;;6.60;99.90;;;;;;6245461;22;20440;-75
2021/11/24 06:01:42;;;;;;;15.88;11.38;;;6.50;99.90;;;;;;6244102;23;20321;-75
2021/11/24 06:04:08;;;;;;;14.88;11.07;;;6.60;99.90;;;;;;6245606;22;20004;-75
2021/11/24 06:06:35;;;;;;;16.83;10.65;;;6.40;99.90;;;;;;6244242;23;20008;-75
2021/11/24 06:09:03;;;;;;;15.93;10.70;;;6.40;99.90;;;;;;6243772;23;20008;-75
2021/11/24 06:11:29;;;;;;;15.07;10.68;;;6.40;99.90;;;;;;6245312;22;20451;-75
2021/11/24 06:13:55;;;;;;;13.43;9.85;;;6.50;99.90;;;;;;6243995;23;20000;-75
2021/11/24 06:16:21;;;;;;;13.48;10.32;;;6.60;99.90;;;;;;6243747;23;20008;-75
2021/11/24 06:18:47;;;;;;;15.73;10.27;;;6.50;99.90;;;;;;6245446;22;20000;-75
2021/11/24 06:21:13;;;;;;;13.65;9.65;;;6.50;99.90;;;;;;6243961;23;20008;-75
2021/11/24 06:23:39;;;;;;;14.50;10.40;;;6.60;99.90;;;;;;6245252;22;20473;-75
2021/11/24 06:26:07;;;;;;;13.02;9.23;;;6.60;99.90;;;;;;6245377;22;20012;-75
2021/11/24 06:28:33;;;;;;;14.23;9.35;;;6.70;99.90;;;;;;6243883;23;20401;-76
2021/11/24 06:31:00;;;;;;;13.10;9.57;;;6.60;99.90;;;;;;6245158;22;20429;-75
2021/11/24 06:33:26;;;;;;;14.25;9.27;;;6.70;99.90;;;;;;6243425;23;20008;-75
2021/11/24 06:35:53;;;;;;;16.10;9.32;;;6.70;99.90;;;;;;6243526;23;20004;-76
2021/11/24 06:38:20;;;;;;;12.30;9.40;;;6.60;99.90;;;;;;6243766;23;20004;-75
2021/11/24 06:40:45;;;;;;;14.20;8.95;;;6.60;99.90;;;;;;6245091;22;20131;-76
2021/11/24 06:43:11;;;;;;;9.15;7.82;;;6.60;99.90;;;;;;6245057;23;20403;-76
2021/11/24 06:45:37;;;;;;;11.32;8.25;;;6.50;99.90;;;;;;6243685;23;20004;-76
2021/11/24 06:48:03;;;;;;;11.68;7.57;;;6.50;99.90;;;;;;6245043;23;20522;-75
2021/11/24 06:50:29;;;;;;;11.18;8.13;;;6.50;99.90;;;;;;6245103;22;20030;-76
2021/11/24 06:52:55;;;;;;;11.90;7.85;;;6.50;99.90;;;;;;6245350;22;20331;-76
2021/11/24 06:55:21;;;;;;;13.05;9.30;;;6.50;99.90;;;;;;6244974;22;20004;-76
2021/11/24 06:57:46;;;;;;;14.30;8.75;;;6.50;99.90;;;;;;6244806;23;20004;-75
2021/11/24 07:00:13;;;;;;;12.43;8.68;;;6.50;99.90;;;;;;6245004;22;20448;-76
2021/11/24 07:02:38;;;;;;;10.52;8.02;;;6.50;99.90;;;;;;6244137;22;20071;-75
2021/11/24 07:05:05;;;;;;;13.63;9.57;;;6.50;99.90;;;;;;6243242;23;20368;-75
2021/11/24 07:07:31;;;;;;;13.02;9.00;;;6.50;99.90;;;;;;6243569;23;20031;-76
2021/11/24 07:09:57;;;;;;;11.88;9.10;;;6.50;99.90;;;;;;6243049;23;20440;-76
2021/11/24 07:12:25;;;;;;;13.02;8.60;;;6.50;99.90;;;;;;6244759;23;20428;-76
2021/11/24 07:14:53;;;;;;;11.35;8.32;;;6.50;99.90;;;;;;6244804;22;20026;-75
2021/11/24 07:17:18;;;;;;;11.50;8.18;;;6.50;99.90;;;;;;6243065;23;20004;-75
2021/11/24 07:19:44;;;;;;;12.05;8.23;;;6.50;99.90;;;;;;6244959;22;20000;-75
2021/11/24 07:22:10;;;;;;;13.05;9.05;;;6.40;99.90;;;;;;6244808;23;19996;-75
2021/11/24 07:24:36;;;;;;;12.50;7.95;;;6.50;99.90;;;;;;6243278;23;20001;-75
2021/11/24 07:27:01;;;;;;;13.32;8.60;;;6.50;99.90;;;;;;6244878;23;20054;-75
2021/11/24 07:29:27;;;;;;;12.35;8.20;;;6.40;99.90;;;;;;6242960;23;20317;-75
2021/11/24 07:31:53;;;;;;;9.88;7.40;;;6.50;99.90;;;;;;6243216;23;20004;-76
2021/11/24 07:34:19;;;;;;;13.43;8.43;;;6.40;99.90;;;;;;6245160;23;20004;-76
2021/11/24 07:36:45;;;;;;;11.77;7.93;;;6.40;99.90;;;;;;6246068;22;20083;-75
2021/11/24 07:39:10;;;;;;;11.55;9.10;;;6.50;99.90;;;;;;6244784;23;20038;-75
2021/11/24 07:41:36;;;;;;;12.32;8.68;;;6.60;99.90;;;;;;6246240;22;20038;-75
2021/11/24 07:44:02;;;;;;;14.93;9.07;;;6.70;99.90;;;;;;6246015;23;20054;-75
2021/11/24 07:46:28;;;;;;;13.30;8.88;;;6.70;99.90;;;;;;6246050;22;20000;-75
2021/11/24 07:48:54;;;;;;;10.60;8.10;;;6.80;99.90;;;;;;6246226;22;20007;-76
2021/11/24 07:51:20;;;;;;;12.52;8.90;;;6.90;99.90;;;;;;6244335;23;20424;-75
2021/11/24 07:53:47;;;;;;;12.48;8.95;;;6.90;99.90;;;;;;6246150;22;20062;-75
2021/11/24 07:56:13;;;;;;;12.10;8.93;;;7.00;99.90;;;;;;6246130;22;20057;-76
2021/11/24 07:58:41;;;;;;;12.65;9.65;;;7.00;99.90;;;;;;6245834;23;20428;-75
2021/11/24 08:01:11;;;;;;;16.88;9.23;;;7.00;99.90;;;;;;6244379;23;20000;-75
2021/11/24 08:03:36;;;;;;;14.95;8.73;;;7.00;99.90;;;;;;6245869;22;20003;-75
2021/11/24 08:06:02;;;;;;;16.27;10.23;;;7.10;99.90;;;;;;6245687;22;20008;-75
2021/11/24 08:08:28;;;;;;;13.02;9.20;;;7.10;99.90;;;;;;6246103;22;20000;-75
2021/11/24 08:10:54;;;;;;;19.42;9.43;;;7.20;99.90;;;;;;6246259;23;19996;-75
2021/11/24 08:13:21;;;;;;;17.90;9.63;;;7.20;99.90;;;;;;6245874;22;20008;-75
2021/11/24 08:15:47;;;;;;;17.65;10.23;;;7.20;99.90;;;;;;6243920;23;20008;-75
2021/11/24 08:18:14;;;;;;;14.93;9.50;;;7.30;99.90;;;;;;6243451;23;20004;-75
2021/11/24 08:20:40;;;;;;;14.63;9.68;;;7.40;99.90;;;;;;6241020;23;20000;-75
2021/11/24 08:23:06;;;;;;;15.75;10.45;;;7.50;99.90;;;;;;6242994;22;19996;-75
2021/11/24 08:25:32;;;;;;;15.48;9.20;;;7.50;99.90;;;;;;6243597;22;20023;-75
2021/11/24 08:27:58;;;;;;;12.68;8.80;;;7.50;99.90;;;;;;6243316;23;20424;-75
2021/11/24 08:30:23;;;;;;;12.38;10.10;;;7.60;99.90;;;;;;6243949;22;20004;-75
2021/11/24 08:32:50;;;;;;;14.60;10.15;;;7.60;99.90;;;;;;6242425;23;20008;-75
2021/11/24 08:35:18;;;;;;;12.15;9.05;;;7.60;99.90;;;;;;6242325;23;20004;-75
2021/11/24 08:37:44;;;;;;;12.82;9.65;;;7.70;99.90;;;;;;6242235;23;20004;-75
2021/11/24 08:40:10;;;;;;;14.73;9.55;;;7.80;99.90;;;;;;6243846;23;20011;-75
2021/11/24 08:42:37;;;;;;;16.98;10.38;;;7.80;99.90;;;;;;6242500;23;20027;-75
2021/11/24 08:45:04;;;;;;;18.20;10.25;;;7.80;99.90;;;;;;6243694;22;20011;-75
2021/11/24 08:47:29;;;;;;;13.57;10.07;;;7.80;99.90;;;;;;6243829;22;20000;-75
2021/11/24 08:49:55;;;;;;;15.00;10.68;;;7.90;99.90;;;;;;6242542;23;19996;-75
2021/11/24 08:52:22;;;;;;;15.20;9.82;;;7.90;99.90;;;;;;6242308;23;20008;-75
2021/11/24 08:54:47;;;;;;;17.20;10.65;;;8.00;99.90;;;;;;6243821;22;20091;-75
2021/11/24 08:57:14;;;;;;;14.07;10.23;;;8.00;99.90;;;;;;6243880;23;20051;-75
2021/11/24 08:59:40;;;;;;;16.70;11.50;;;8.10;99.90;;;;;;6243567;22;20023;-75
2021/11/24 09:02:06;;;;;;;21.85;12.20;;;8.10;99.90;;;;;;6241946;23;20004;-75
2021/11/24 09:04:33;;;;;;;19.27;11.45;;;8.10;99.90;;;;;;6242300;23;20431;-75
2021/11/24 09:06:59;;;;;;;16.17;11.15;;;8.10;99.90;;;;;;6243732;22;20050;-75
2021/11/24 09:09:24;;;;;;;18.83;12.45;;;8.20;99.90;;;;;;6242196;23;20008;-75
2021/11/24 09:11:50;;;;;;;21.33;12.00;;;8.20;99.90;;;;;;6243985;22;20435;-75
2021/11/24 09:14:16;;;;;;;19.45;11.38;;;8.20;99.90;;;;;;6243600;23;20007;-75
2021/11/24 09:16:42;;;;;;;22.42;11.98;;;8.30;99.90;;;;;;6242037;23;20008;-75
2021/11/24 09:19:07;;;;;;;18.73;11.70;;;8.30;99.90;;;;;;6243949;23;20375;-75
2021/11/24 09:21:33;;;;;;;26.45;12.77;;;8.30;99.90;;;;;;6242093;23;20276;-75
2021/11/24 09:24:11;;;;;;;31.92;13.48;;;8.30;99.90;;;;;;6241913;23;20008;-75
2021/11/24 09:29:06;;;;;;;22.35;12.35;;;8.40;99.90;;;;;;6247920;22;20012;-75
2021/11/24 09:31:32;;;;;;;18.20;11.80;;;8.40;99.90;;;;;;6245670;22;20008;-75
2021/11/24 09:33:59;;;;;;;20.40;11.27;;;8.40;99.90;;;;;;6245811;22;20000;-75
2021/11/24 09:36:25;;;;;;;18.73;12.10;;;8.40;99.90;;;;;;6245380;22;20081;-75
2021/11/24 09:38:51;;;;;;;18.77;11.38;;;8.50;99.90;;;;;;6243971;23;20028;-75
2021/11/24 09:41:24;;;;;;;17.35;12.10;;;8.50;99.90;;;;;;6245827;22;20019;-75
2021/11/24 09:43:53;;;;;;;17.10;12.45;;;8.50;99.90;;;;;;6244137;23;20024;-75
2021/11/24 09:46:19;;;;;;;21.00;12.90;;;8.50;99.90;;;;;;6245836;22;20011;-75
2021/11/24 09:48:48;;;;;;;17.10;12.23;;;8.60;99.90;;;;;;6245560;22;20000;-75
2021/11/24 09:51:14;;;;;;;18.00;11.07;;;8.60;99.90;;;;;;6245192;22;20332;-75
2021/11/24 09:53:42;;;;;;;21.80;12.00;;;8.60;99.90;;;;;;6245483;22;20000;-75
2021/11/24 09:56:08;;;;;;;19.52;11.82;;;8.60;99.90;;;;;;6245108;22;20004;-75
2021/11/24 09:58:34;;;;;;;19.52;11.95;;;8.70;99.90;;;;;;6245471;22;20016;-75
2021/11/24 10:01:01;;;;;;;17.27;11.55;;;8.70;99.90;;;;;;6245438;22;20023;-75
2021/11/24 10:03:27;;;;;;;20.15;12.27;;;8.80;99.90;;;;;;6243670;23;20007;-75
2021/11/24 10:05:54;;;;;;;20.92;11.80;;;8.80;99.90;;;;;;6243773;23;20008;-75
2021/11/24 10:08:20;;;;;;;19.92;11.70;;;8.80;99.90;;;;;;6245482;22;20487;-75
2021/11/24 10:10:46;;;;;;;18.10;11.60;;;8.90;99.90;;;;;;6245227;23;20027;-76
2021/11/24 10:13:13;;;;;;;17.92;12.00;;;8.90;99.90;;;;;;6243400;23;20053;-75
2021/11/24 10:15:52;;;;;;;19.40;13.15;;;9.00;99.90;;;;;;6243682;23;20004;-75
2021/11/24 10:18:30;;;;;;;19.38;12.35;;;8.90;99.90;;;;;;6242229;23;20008;-76
2021/11/24 10:21:11;;;;;;;22.15;13.52;;;9.10;99.90;;;;;;6244002;22;20075;-76
2021/11/24 10:23:40;;;;;;;22.02;12.82;;;9.20;99.90;;;;;;6243027;23;20099;-76
2021/11/24 10:26:33;;;;;;;18.15;12.35;;;9.20;99.90;;;;;;6243412;23;20247;-76
2021/11/24 10:29:05;;;;;;;18.27;13.32;;;9.20;99.90;;;;;;6245425;22;20004;-76
2021/11/24 10:31:38;;;;;;;20.60;12.52;;;9.30;99.90;;;;;;6243578;23;20032;-76
2021/11/24 10:34:30;;;;;;;;;;;9.30;99.90;;;;;;6245641;22;20078;-76
2021/11/24 10:37:04;;;;;;;19.60;12.23;;;9.30;99.90;;;;;;6238699;23;19982;-76
2021/11/24 10:39:37;;;;;;;19.92;13.07;;;9.30;99.90;;;;;;6246542;22;20001;-75
2021/11/24 10:42:10;;;;;;;23.90;12.52;;;9.40;99.90;;;;;;6246434;22;20028;-76
2021/11/24 10:44:36;;;;;;;19.83;12.82;;;9.30;99.90;;;;;;6246654;22;20293;-76
2021/11/24 10:47:07;;;;;;;22.55;13.65;;;9.40;99.90;;;;;;6246815;23;20077;-76
2021/11/24 10:49:39;;;;;;;20.25;12.63;;;9.40;99.90;;;;;;6244790;23;20087;-76
2021/11/24 10:52:17;;;;;;;19.50;12.60;;;9.50;99.90;;;;;;6244823;23;20008;-76
2021/11/24 10:54:55;;;;;;;18.73;13.00;;;9.50;99.90;;;;;;6244950;23;20004;-76
2021/11/24 10:57:21;;;;;;;24.30;12.27;;;9.50;99.90;;;;;;6245117;23;20012;-76
2021/11/24 10:59:47;;;;;;;22.38;12.60;;;9.50;99.90;;;;;;6246457;22;20012;-76
2021/11/24 11:02:25;;;;;;;24.13;13.07;;;9.60;99.90;;;;;;6246713;22;20416;-76
2021/11/24 11:05:07;;;;;;;19.45;12.60;;;9.60;99.90;;;;;;6246718;22;20000;-76
2021/11/24 11:07:36;;;;;;;20.73;11.85;;;9.70;99.90;;;;;;6245247;23;20012;-76
2021/11/24 11:10:11;;;;;;;18.88;11.73;;;9.70;99.90;;;;;;6244887;23;20035;-76
2021/11/24 11:12:41;;;;;;;21.65;12.23;;;9.80;99.90;;;;;;6246251;22;20007;-76
2021/11/24 11:15:15;;;;;;;21.00;13.65;;;9.80;99.90;;;;;;6243262;23;20004;-76
2021/11/24 11:18:09;;;;;;;17.42;11.40;;;9.90;99.90;;;;;;6244866;22;20011;-76
2021/11/24 11:20:51;;;;;;;19.05;11.57;;;9.90;99.90;;;;;;6239400;23;20011;-77
2021/11/24 11:23:27;;;;;;;24.40;12.45;;;9.90;99.90;;;;;;6244285;23;20106;-76
2021/11/24 11:26:00;;;;;;;16.38;10.93;;;10.00;99.90;;;;;;6244324;23;20428;-76
2021/11/24 11:28:32;;;;;;;16.92;10.77;;;10.00;99.90;;;;;;6245684;22;20079;-76
2021/11/24 11:31:02;;;;;;;24.20;11.52;;;10.00;99.90;;;;;;6245984;22;20071;-77
2021/11/24 11:33:55;;;;;;;17.92;11.63;;;10.10;99.90;;;;;;6245840;22;20023;-76
2021/11/24 11:36:21;;;;;;;21.17;12.60;;;10.10;99.90;;;;;;6250633;22;20008;-76
2021/11/24 11:38:50;;;;;;;22.38;11.98;;;10.10;99.90;;;;;;6245473;22;19996;-76
2021/11/24 11:41:18;;;;;;;19.52;12.60;;;10.20;99.90;;;;;;6244221;23;20484;-75
2021/11/24 11:43:50;;;;;;;25.50;12.27;;;10.10;99.90;;;;;;6246252;22;20051;-75
2021/11/24 11:46:25;;;;;;;19.05;11.93;;;10.10;99.90;;;;;;6244418;23;20317;-76
2021/11/24 11:48:54;;;;;;;18.30;11.35;;;10.20;99.90;;;;;;6243964;23;20087;-75
2021/11/24 11:51:32;;;;;;;18.50;10.98;;;10.30;99.90;;;;;;6246228;22;20011;-75
2021/11/24 11:53:58;;;;;;;18.23;11.52;;;10.30;99.90;;;;;;6244097;23;20451;-75
2021/11/24 11:56:37;;;;;;;19.13;11.65;;;10.30;99.90;;;;;;6245621;23;20035;-75
2021/11/24 11:59:08;;;;;;;20.17;12.02;;;10.30;99.90;;;;;;6245791;22;20066;-75
2021/11/24 12:01:43;;;;;;;22.10;12.43;;;10.30;99.90;;;;;;6243956;23;20340;-75
2021/11/24 12:04:19;;;;;;;16.90;11.30;;;10.40;99.90;;;;;;6244054;22;20310;-75
2021/11/24 12:06:44;;;;;;;15.57;10.27;;;10.40;99.90;;;;;;6242849;23;20066;-75
2021/11/24 12:09:31;;;;;;;17.80;11.05;;;10.30;99.90;;;;;;6242767;23;20012;-75
2021/11/24 12:12:06;;;;;;;16.65;10.93;;;10.30;99.90;;;;;;6242722;23;20011;-76
2021/11/24 12:15:02;;;;;;;18.58;10.00;;;10.40;99.90;;;;;;6242626;23;20008;-75
2021/11/24 12:17:28;;;;;;;17.00;10.55;;;10.40;99.90;;;;;;6243939;22;20455;-75
2021/11/24 12:20:04;;;;;;;20.92;10.68;;;10.40;99.90;;;;;;6242304;23;20002;-75
2021/11/24 12:25:26;;;;;;;16.75;10.48;;;10.40;99.90;;;;;;6244318;23;20432;-75
2021/11/24 12:33:07;;;;;;;18.60;9.77;;;10.40;99.90;;;;;;6243989;23;20043;-75
2021/11/24 12:35:35;;;;;;;14.52;9.43;;;10.30;99.90;;;;;;6242352;23;20011;-75
2021/11/24 12:38:03;;;;;;;13.40;8.10;;;10.40;99.90;;;;;;6242399;23;20011;-75
2021/11/24 12:40:32;;;;;;;13.00;8.32;;;10.40;99.90;;;;;;6242385;23;20023;-75
2021/11/24 12:43:00;;;;;;;13.95;9.95;;;10.40;99.90;;;;;;6244045;22;20007;-75
2021/11/24 12:45:26;;;;;;;14.82;9.50;;;10.30;99.90;;;;;;6244159;22;20412;-75
2021/11/24 12:48:00;;;;;;;13.85;9.82;;;10.30;99.90;;;;;;6244144;22;20000;-75
2021/11/24 12:50:27;;;;;;;17.90;9.18;;;10.30;99.90;;;;;;6244033;22;20436;-75
2021/11/24 12:53:05;;;;;;;12.23;9.50;;;10.30;99.90;;;;;;6243768;22;20339;-75